Portada
METAR-TAF:

METAR-TAF

Aeroports :

Huatulco, Mèxic

latitud: 15-47N, longitud: 096-16W, altitud: 143 m

Observació

L'informe es va fer fa 49 minuts, a les 14:43 UTC
Vent calma
Temperatura 28°C
Humitat 70%
Pressió 1011 hPa
Visibilitat: 12.9 km
Cel clar

METAR: MMBT 251443Z 00000KT 8SM SKC 28/22 A2985

Hora: 10:32 (15:32 UTC)

Pronòstic

L'informe es va fer fa 11 hores i 17 minuts, a les 04:15 UTC
Pronòstic vàlid del 25 a les 06 UTC al 26 a les 06 UTC
Vent kt del Nord
Visibilitat: 10 km
Cel clar
A partir de les 25 a les 2000 UTC
Vent 8 kt del Oest/Sud-Oest
Visibilitat: 10 km
Núvols disperses a una alçada de 2000 ft
A partir de les 26 a les 0100 UTC
Vent kt del Nord
Visibilitat: 10 km
Núvols disperses a una alçada de 3000 ft

TAF: MMBT 250415Z 2506/2606 00000KT P6SM SKC FM252000 24008KT P6SM SCT020 FM260100 00000KT P6SM SCT030

Observacions i pronòstics meteorològics de més de 4000 aeroports (METAR i TAF).

Les estacions disponibles són els punts grocs i vermells al mapa.

Posi el ratolí al punt desitjat per veure el nom de l'estació.

Feu clic per veure les observacions i els pronòstics meteorològics.

Per canviar el mapa: feu clic els botons verds amb una creu de color negre per apropar; al botó verd amb un guió per allunyar la imatge; o en les fletxes verdes per a mapes adjacents.


METAR-TAF: